Leerdam, Netherlands
Current Conditions -  °F | °C
As of 6:55 AM on Sunday 23 Nov 2014 (Local Time) from EHGR Reporting Station
Haze Haze  
Wind Chill: 48°   Ceiling: NA
Heat Index: 48°   Visibility: 3mi
Dew Point: 46°   Wind: 2mph
Humidity: 93%   Direction: 170°S
Pressure: 30"   Gusts: NA
Location:  51.89°N, 5.09°E
Report Text: EHGR 230555Z AUTO 17002KT 5000 BR ////// 09/08 Q1016 WHT
Loading
Personal Weather Stations






























Interactive Weather Map New forecast layout! Learn more

10-Day Weather Forecast

Advertisements
Track Severe Weather on mobile